sensor_id;sensor_type;location;lat;lon;timestamp;pressure;altitude;pressure_sealevel;temperature;humidity
14253;BME280;7210;51.502;10.722;2022-09-12T00:01:23;99833.63;;;10.22;100.00
14253;BME280;7210;51.502;10.722;2022-09-12T00:03:53;99832.69;;;10.17;100.00
14253;BME280;7210;51.502;10.722;2022-09-12T00:06:23;99828.84;;;10.13;100.00
14253;BME280;7210;51.502;10.722;2022-09-12T00:08:54;99828.47;;;10.09;100.00
14253;BME280;7210;51.502;10.722;2022-09-12T00:11:21;99829.50;;;10.08;100.00
14253;BME280;7210;51.502;10.722;2022-09-12T00:13:49;99836.78;;;10.13;100.00
14253;BME280;7210;51.502;10.722;2022-09-12T00:16:20;99837.34;;;10.15;100.00
14253;BME280;7210;51.502;10.722;2022-09-12T00:18:48;99837.41;;;10.08;100.00
14253;BME280;7210;51.502;10.722;2022-09-12T00:21:18;99837.66;;;10.00;100.00
14253;BME280;7210;51.502;10.722;2022-09-12T00:23:47;99838.75;;;9.93;100.00
14253;BME280;7210;51.502;10.722;2022-09-12T00:26:16;99836.16;;;9.86;100.00
14253;BME280;7210;51.502;10.722;2022-09-12T00:28:45;99829.53;;;9.77;100.00
14253;BME280;7210;51.502;10.722;2022-09-12T00:31:17;99837.56;;;9.89;100.00
14253;BME280;7210;51.502;10.722;2022-09-12T00:33:44;99829.44;;;9.90;100.00
14253;BME280;7210;51.502;10.722;2022-09-12T00:36:15;99829.00;;;9.93;100.00
14253;BME280;7210;51.502;10.722;2022-09-12T00:38:46;99827.00;;;9.89;100.00
14253;BME280;7210;51.502;10.722;2022-09-12T00:41:17;99838.00;;;9.86;100.00
14253;BME280;7210;51.502;10.722;2022-09-12T00:43:47;99823.41;;;9.83;100.00
14253;BME280;7210;51.502;10.722;2022-09-12T00:46:28;99827.06;;;9.82;100.00
14253;BME280;7210;51.502;10.722;2022-09-12T00:49:02;99824.84;;;9.79;100.00
14253;BME280;7210;51.502;10.722;2022-09-12T00:51:34;99821.81;;;9.76;100.00
14253;BME280;7210;51.502;10.722;2022-09-12T00:54:09;99821.81;;;9.76;100.00
14253;BME280;7210;51.502;10.722;2022-09-12T00:56:41;99808.84;;;9.74;100.00
14253;BME280;7210;51.502;10.722;2022-09-12T00:59:16;99816.78;;;9.74;100.00
14253;BME280;7210;51.502;10.722;2022-09-12T01:01:48;99814.13;;;9.74;100.00
14253;BME280;7210;51.502;10.722;2022-09-12T01:04:19;99805.59;;;9.72;100.00
14253;BME280;7210;51.502;10.722;2022-09-12T01:06:49;99809.72;;;9.68;100.00
14253;BME280;7210;51.502;10.722;2022-09-12T01:09:21;99811.16;;;9.64;100.00
14253;BME280;7210;51.502;10.722;2022-09-12T01:11:50;99804.91;;;9.59;100.00
14253;BME280;7210;51.502;10.722;2022-09-12T01:14:19;99801.31;;;9.53;100.00
14253;BME280;7210;51.502;10.722;2022-09-12T01:16:48;99809.88;;;9.49;100.00
14253;BME280;7210;51.502;10.722;2022-09-12T01:22:53;99795.69;;;9.43;100.00
14253;BME280;7210;51.502;10.722;2022-09-12T01:25:48;99797.72;;;9.41;100.00
14253;BME280;7210;51.502;10.722;2022-09-12T01:28:53;99800.22;;;9.36;100.00
14253;BME280;7210;51.502;10.722;2022-09-12T01:31:32;99798.59;;;9.35;100.00
14253;BME280;7210;51.502;10.722;2022-09-12T01:34:17;99802.25;;;9.34;100.00
14253;BME280;7210;51.502;10.722;2022-09-12T01:37:00;99795.78;;;9.30;100.00
14253;BME280;7210;51.502;10.722;2022-09-12T01:39:42;99794.59;;;9.26;100.00
14253;BME280;7210;51.502;10.722;2022-09-12T01:42:21;99798.69;;;9.22;100.00
14253;BME280;7210;51.502;10.722;2022-09-12T01:45:00;99788.56;;;9.19;100.00
14253;BME280;7210;51.502;10.722;2022-09-12T01:47:39;99792.44;;;9.17;100.00
14253;BME280;7210;51.502;10.722;2022-09-12T01:50:12;99783.94;;;9.15;100.00
14253;BME280;7210;51.502;10.722;2022-09-12T01:52:48;99797.31;;;9.13;100.00
14253;BME280;7210;51.502;10.722;2022-09-12T01:55:22;99790.56;;;9.17;100.00
14253;BME280;7210;51.502;10.722;2022-09-12T01:57:57;99795.44;;;9.20;100.00
14253;BME280;7210;51.502;10.722;2022-09-12T02:00:26;99792.00;;;9.20;100.00
14253;BME280;7210;51.502;10.722;2022-09-12T02:03:00;99788.97;;;9.16;100.00
14253;BME280;7210;51.502;10.722;2022-09-12T02:05:33;99794.94;;;9.05;100.00
14253;BME280;7210;51.502;10.722;2022-09-12T02:08:07;99787.41;;;9.02;100.00
14253;BME280;7210;51.502;10.722;2022-09-12T02:13:34;99786.44;;;9.03;100.00
14253;BME280;7210;51.502;10.722;2022-09-12T02:16:09;99774.25;;;9.02;100.00
14253;BME280;7210;51.502;10.722;2022-09-12T02:18:46;99779.31;;;9.04;100.00
14253;BME280;7210;51.502;10.722;2022-09-12T02:21:18;99772.81;;;9.06;100.00
14253;BME280;7210;51.502;10.722;2022-09-12T02:23:51;99772.41;;;9.03;100.00
14253;BME280;7210;51.502;10.722;2022-09-12T02:26:35;99774.09;;;8.97;100.00
14253;BME280;7210;51.502;10.722;2022-09-12T02:29:07;99769.66;;;8.91;100.00
14253;BME280;7210;51.502;10.722;2022-09-12T02:31:44;99778.59;;;8.90;100.00
14253;BME280;7210;51.502;10.722;2022-09-12T02:34:30;99776.59;;;8.86;100.00
14253;BME280;7210;51.502;10.722;2022-09-12T02:37:09;99777.81;;;8.83;100.00
14253;BME280;7210;51.502;10.722;2022-09-12T02:39:39;99776.81;;;8.78;100.00
14253;BME280;7210;51.502;10.722;2022-09-12T02:42:06;99773.41;;;8.71;100.00
14253;BME280;7210;51.502;10.722;2022-09-12T02:44:35;99779.50;;;8.65;100.00
14253;BME280;7210;51.502;10.722;2022-09-12T02:47:07;99774.69;;;8.62;100.00
14253;BME280;7210;51.502;10.722;2022-09-12T02:49:37;99766.16;;;8.60;100.00
14253;BME280;7210;51.502;10.722;2022-09-12T02:52:04;99769.00;;;8.58;100.00
14253;BME280;7210;51.502;10.722;2022-09-12T02:54:32;99770.25;;;8.56;100.00
14253;BME280;7210;51.502;10.722;2022-09-12T02:57:00;99769.00;;;8.58;100.00
14253;BME280;7210;51.502;10.722;2022-09-12T02:59:27;99768.41;;;8.56;100.00
14253;BME280;7210;51.502;10.722;2022-09-12T03:02:16;99771.44;;;8.53;100.00
14253;BME280;7210;51.502;10.722;2022-09-12T03:05:23;99771.44;;;8.53;100.00
14253;BME280;7210;51.502;10.722;2022-09-12T03:08:16;99775.09;;;8.52;100.00
14253;BME280;7210;51.502;10.722;2022-09-12T03:11:17;99767.00;;;8.47;100.00
14253;BME280;7210;51.502;10.722;2022-09-12T03:14:01;99773.50;;;8.51;100.00
14253;BME280;7210;51.502;10.722;2022-09-12T03:16:40;99771.44;;;8.53;100.00
14253;BME280;7210;51.502;10.722;2022-09-12T03:19:21;99766.56;;;8.57;100.00
14253;BME280;7210;51.502;10.722;2022-09-12T03:22:02;99761.50;;;8.55;100.00
14253;BME280;7210;51.502;10.722;2022-09-12T03:24:34;99766.19;;;8.53;100.00
14253;BME280;7210;51.502;10.722;2022-09-12T03:27:11;99771.88;;;8.50;100.00
14253;BME280;7210;51.502;10.722;2022-09-12T03:29:42;99763.00;;;8.45;100.00
14253;BME280;7210;51.502;10.722;2022-09-12T03:32:13;99765.84;;;8.43;100.00
14253;BME280;7210;51.502;10.722;2022-09-12T03:34:41;99761.59;;;8.42;100.00
14253;BME280;7210;51.502;10.722;2022-09-12T03:37:10;99763.00;;;8.38;100.00
14253;BME280;7210;51.502;10.722;2022-09-12T03:39:37;99759.78;;;8.36;100.00
14253;BME280;7210;51.502;10.722;2022-09-12T03:42:05;99762.59;;;8.35;100.00
14253;BME280;7210;51.502;10.722;2022-09-12T03:44:33;99762.84;;;8.33;100.00
14253;BME280;7210;51.502;10.722;2022-09-12T03:47:00;99765.88;;;8.30;100.00
14253;BME280;7210;51.502;10.722;2022-09-12T03:49:27;99771.56;;;8.27;100.00
14253;BME280;7210;51.502;10.722;2022-09-12T03:51:54;99765.69;;;8.25;100.00
14253;BME280;7210;51.502;10.722;2022-09-12T03:54:23;99769.75;;;8.21;100.00
14253;BME280;7210;51.502;10.722;2022-09-12T03:56:50;99765.47;;;8.27;100.00
14253;BME280;7210;51.502;10.722;2022-09-12T03:59:17;99770.75;;;8.27;100.00
14253;BME280;7210;51.502;10.722;2022-09-12T04:01:44;99762.88;;;8.20;100.00
14253;BME280;7210;51.502;10.722;2022-09-12T04:04:11;99766.69;;;8.18;100.00
14253;BME280;7210;51.502;10.722;2022-09-12T04:06:38;99755.34;;;8.11;100.00
14253;BME280;7210;51.502;10.722;2022-09-12T04:09:06;99768.13;;;8.20;100.00
14253;BME280;7210;51.502;10.722;2022-09-12T04:11:35;99760.63;;;8.24;100.00
14253;BME280;7210;51.502;10.722;2022-09-12T04:14:02;99765.69;;;8.19;100.00
14253;BME280;7210;51.502;10.722;2022-09-12T04:16:30;99735.56;;;7.95;100.00
14253;BME280;7210;51.502;10.722;2022-09-12T04:18:57;99763.47;;;8.09;100.00
14253;BME280;7210;51.502;10.722;2022-09-12T04:21:24;99765.50;;;8.07;100.00
14253;BME280;7210;51.502;10.722;2022-09-12T04:23:51;99767.09;;;8.08;100.00
14253;BME280;7210;51.502;10.722;2022-09-12T04:26:19;99768.34;;;8.06;100.00
14253;BME280;7210;51.502;10.722;2022-09-12T04:28:52;99764.31;;;8.03;100.00
14253;BME280;7210;51.502;10.722;2022-09-12T04:31:22;99760.25;;;8.01;100.00
14253;BME280;7210;51.502;10.722;2022-09-12T04:33:53;99769.97;;;8.00;100.00
14253;BME280;7210;51.502;10.722;2022-09-12T04:36:21;99763.91;;;8.00;100.00
14253;BME280;7210;51.502;10.722;2022-09-12T04:38:49;99770.78;;;8.01;100.00
14253;BME280;7210;51.502;10.722;2022-09-12T04:41:18;99766.13;;;7.96;100.00
14253;BME280;7210;51.502;10.722;2022-09-12T04:43:52;99775.63;;;8.04;100.00
14253;BME280;7210;51.502;10.722;2022-09-12T04:46:20;99784.97;;;8.19;100.00
14253;BME280;7210;51.502;10.722;2022-09-12T04:48:48;99783.31;;;8.25;100.00
14253;BME280;7210;51.502;10.722;2022-09-12T04:51:19;99788.16;;;8.28;100.00
14253;BME280;7210;51.502;10.722;2022-09-12T04:53:49;99787.13;;;8.29;100.00
14253;BME280;7210;51.502;10.722;2022-09-12T04:56:18;99787.38;;;8.27;100.00
14253;BME280;7210;51.502;10.722;2022-09-12T04:58:46;99786.16;;;8.30;100.00
14253;BME280;7210;51.502;10.722;2022-09-12T05:01:19;99790.59;;;8.29;100.00
14253;BME280;7210;51.502;10.722;2022-09-12T05:03:49;99782.09;;;8.27;100.00
14253;BME280;7210;51.502;10.722;2022-09-12T05:06:21;99793.66;;;8.26;100.00
14253;BME280;7210;51.502;10.722;2022-09-12T05:08:49;99798.28;;;8.31;100.00
14253;BME280;7210;51.502;10.722;2022-09-12T05:11:19;99793.44;;;8.34;100.00
14253;BME280;7210;51.502;10.722;2022-09-12T05:13:46;99800.69;;;8.32;100.00
14253;BME280;7210;51.502;10.722;2022-09-12T05:16:17;99800.53;;;8.27;100.00
14253;BME280;7210;51.502;10.722;2022-09-12T05:18:48;99799.09;;;8.31;100.00
14253;BME280;7210;51.502;10.722;2022-09-12T05:21:18;99798.91;;;8.26;100.00
14253;BME280;7210;51.502;10.722;2022-09-12T05:23:46;99789.78;;;8.22;100.00
14253;BME280;7210;51.502;10.722;2022-09-12T05:26:15;99807.63;;;8.20;100.00
14253;BME280;7210;51.502;10.722;2022-09-12T05:28:43;99801.53;;;8.20;100.00
14253;BME280;7210;51.502;10.722;2022-09-12T05:31:13;99792.22;;;8.17;100.00
14253;BME280;7210;51.502;10.722;2022-09-12T05:33:44;99806.19;;;8.31;100.00
14253;BME280;7210;51.502;10.722;2022-09-12T05:36:14;99807.22;;;8.30;100.00
14253;BME280;7210;51.502;10.722;2022-09-12T05:38:41;99804.19;;;8.26;100.00
14253;BME280;7210;51.502;10.722;2022-09-12T05:41:12;99805.81;;;8.27;100.00
14253;BME280;7210;51.502;10.722;2022-09-12T05:43:41;99806.41;;;8.29;100.00
14253;BME280;7210;51.502;10.722;2022-09-12T05:46:14;99802.34;;;8.33;100.00
14253;BME280;7210;51.502;10.722;2022-09-12T05:48:45;99808.38;;;8.40;100.00
14253;BME280;7210;51.502;10.722;2022-09-12T05:51:15;99807.16;;;8.43;100.00
14253;BME280;7210;51.502;10.722;2022-09-12T05:53:46;99806.34;;;8.49;100.00
14253;BME280;7210;51.502;10.722;2022-09-12T05:56:26;99803.66;;;8.55;100.00
14253;BME280;7210;51.502;10.722;2022-09-12T05:58:56;99794.16;;;8.54;100.00
14253;BME280;7210;51.502;10.722;2022-09-12T06:01:24;99792.09;;;8.63;100.00
14253;BME280;7210;51.502;10.722;2022-09-12T06:03:55;99805.84;;;8.71;100.00
14253;BME280;7210;51.502;10.722;2022-09-12T06:06:27;99799.34;;;8.80;100.00
14253;BME280;7210;51.502;10.722;2022-09-12T06:08:58;99807.72;;;9.02;100.00
14253;BME280;7210;51.502;10.722;2022-09-12T06:11:29;99802.66;;;9.31;100.00
14253;BME280;7210;51.502;10.722;2022-09-12T06:13:57;99798.94;;;9.45;100.00
14253;BME280;7210;51.502;10.722;2022-09-12T06:16:27;99815.97;;;9.49;100.00
14253;BME280;7210;51.502;10.722;2022-09-12T06:18:59;99807.78;;;9.57;100.00
14253;BME280;7210;51.502;10.722;2022-09-12T06:21:28;99804.25;;;9.63;100.00
14253;BME280;7210;51.502;10.722;2022-09-12T06:23:56;99804.16;;;9.76;100.00
14253;BME280;7210;51.502;10.722;2022-09-12T06:26:24;99809.91;;;9.91;100.00
14253;BME280;7210;51.502;10.722;2022-09-12T06:28:54;99812.72;;;9.96;100.00
14253;BME280;7210;51.502;10.722;2022-09-12T06:31:24;99808.94;;;10.10;100.00
14253;BME280;7210;51.502;10.722;2022-09-12T06:33:53;99799.50;;;10.21;100.00
14253;BME280;7210;51.502;10.722;2022-09-12T06:36:25;99802.38;;;10.37;100.00
14253;BME280;7210;51.502;10.722;2022-09-12T06:38:57;99806.84;;;10.37;100.00
14253;BME280;7210;51.502;10.722;2022-09-12T06:41:27;99797.38;;;10.47;100.00
14253;BME280;7210;51.502;10.722;2022-09-12T06:43:54;99806.16;;;10.77;100.00
14253;BME280;7210;51.502;10.722;2022-09-12T06:46:22;99795.28;;;10.85;100.00
14253;BME280;7210;51.502;10.722;2022-09-12T06:51:42;99798.03;;;11.08;100.00
14253;BME280;7210;51.502;10.722;2022-09-12T06:54:12;99786.22;;;11.22;100.00
14253;BME280;7210;51.502;10.722;2022-09-12T06:56:40;99795.91;;;11.28;100.00
14253;BME280;7210;51.502;10.722;2022-09-12T06:59:07;99795.13;;;11.39;100.00
14253;BME280;7210;51.502;10.722;2022-09-12T07:01:35;99792.97;;;11.47;100.00
14253;BME280;7210;51.502;10.722;2022-09-12T07:04:03;99796.09;;;11.56;100.00
14253;BME280;7210;51.502;10.722;2022-09-12T07:06:36;99779.63;;;11.54;100.00
14253;BME280;7210;51.502;10.722;2022-09-12T07:09:08;99794.31;;;11.79;100.00
14253;BME280;7210;51.502;10.722;2022-09-12T07:11:38;99791.06;;;11.89;100.00
14253;BME280;7210;51.502;10.722;2022-09-12T07:14:08;99785.69;;;11.95;100.00
14253;BME280;7210;51.502;10.722;2022-09-12T07:16:36;99792.81;;;12.18;100.00
14253;BME280;7210;51.502;10.722;2022-09-12T07:19:06;99791.41;;;12.27;100.00
14253;BME280;7210;51.502;10.722;2022-09-12T07:21:34;99788.31;;;12.30;100.00
14253;BME280;7210;51.502;10.722;2022-09-12T07:24:06;99789.56;;;12.39;100.00
14253;BME280;7210;51.502;10.722;2022-09-12T07:26:34;99786.06;;;12.50;100.00
14253;BME280;7210;51.502;10.722;2022-09-12T07:29:02;99785.69;;;12.58;100.00
14253;BME280;7210;51.502;10.722;2022-09-12T07:31:30;99787.06;;;12.72;100.00
14253;BME280;7210;51.502;10.722;2022-09-12T07:33:57;99791.19;;;12.79;100.00
14253;BME280;7210;51.502;10.722;2022-09-12T07:36:29;99782.03;;;12.87;100.00
14253;BME280;7210;51.502;10.722;2022-09-12T07:38:57;99791.25;;;12.96;100.00
14253;BME280;7210;51.502;10.722;2022-09-12T07:41:28;99788.34;;;13.09;100.00
14253;BME280;7210;51.502;10.722;2022-09-12T07:43:58;99782.09;;;13.31;100.00
14253;BME280;7210;51.502;10.722;2022-09-12T07:46:27;99780.19;;;13.43;100.00
14253;BME280;7210;51.502;10.722;2022-09-12T07:48:56;99783.22;;;13.52;100.00
14253;BME280;7210;51.502;10.722;2022-09-12T07:51:30;99785.03;;;13.63;100.00
14253;BME280;7210;51.502;10.722;2022-09-12T07:53:58;99784.94;;;13.74;100.00
14253;BME280;7210;51.502;10.722;2022-09-12T07:56:27;99779.47;;;13.81;100.00
14253;BME280;7210;51.502;10.722;2022-09-12T07:58:54;99784.44;;;13.94;100.00
14253;BME280;7210;51.502;10.722;2022-09-12T08:01:22;99776.56;;;13.99;100.00
14253;BME280;7210;51.502;10.722;2022-09-12T08:03:54;99770.09;;;13.95;100.00
14253;BME280;7210;51.502;10.722;2022-09-12T08:06:22;99768.41;;;14.05;100.00
14253;BME280;7210;51.502;10.722;2022-09-12T08:08:52;99774.84;;;14.26;100.00
14253;BME280;7210;51.502;10.722;2022-09-12T08:11:22;99777.56;;;14.31;100.00
14253;BME280;7210;51.502;10.722;2022-09-12T08:13:53;99777.16;;;14.39;100.00
14253;BME280;7210;51.502;10.722;2022-09-12T08:16:24;99782.47;;;14.60;100.00
14253;BME280;7210;51.502;10.722;2022-09-12T08:18:51;99773.22;;;14.68;100.00
14253;BME280;7210;51.502;10.722;2022-09-12T08:21:21;99783.50;;;14.81;100.00
14253;BME280;7210;51.502;10.722;2022-09-12T08:23:56;99782.59;;;14.92;100.00
14253;BME280;7210;51.502;10.722;2022-09-12T08:26:24;99777.13;;;15.03;100.00
14253;BME280;7210;51.502;10.722;2022-09-12T08:28:53;99772.66;;;15.13;100.00
14253;BME280;7210;51.502;10.722;2022-09-12T08:31:23;99773.84;;;15.23;99.43
14253;BME280;7210;51.502;10.722;2022-09-12T08:33:53;99770.88;;;15.45;99.45
14253;BME280;7210;51.502;10.722;2022-09-12T08:36:23;99772.16;;;15.69;99.47
14253;BME280;7210;51.502;10.722;2022-09-12T08:38:54;99769.63;;;15.89;99.15
14253;BME280;7210;51.502;10.722;2022-09-12T08:41:28;99772.97;;;16.11;98.97
14253;BME280;7210;51.502;10.722;2022-09-12T08:44:20;99758.06;;;16.20;97.36
14253;BME280;7210;51.502;10.722;2022-09-12T08:47:07;99765.94;;;16.42;96.66
14253;BME280;7210;51.502;10.722;2022-09-12T08:49:44;99765.72;;;16.53;95.36
14253;BME280;7210;51.502;10.722;2022-09-12T08:52:25;99770.34;;;16.68;94.36
14253;BME280;7210;51.502;10.722;2022-09-12T08:54:53;99762.63;;;16.76;93.83
14253;BME280;7210;51.502;10.722;2022-09-12T08:57:22;99764.25;;;16.87;92.71
14253;BME280;7210;51.502;10.722;2022-09-12T08:59:51;99761.09;;;16.95;91.71
14253;BME280;7210;51.502;10.722;2022-09-12T09:02:49;99752.56;;;17.03;90.83
14253;BME280;7210;51.502;10.722;2022-09-12T09:05:34;99760.03;;;17.11;90.81
14253;BME280;7210;51.502;10.722;2022-09-12T09:08:32;99749.38;;;17.21;90.45
14253;BME280;7210;51.502;10.722;2022-09-12T09:11:23;99744.59;;;17.38;89.42
14253;BME280;7210;51.502;10.722;2022-09-12T09:14:09;99746.47;;;17.43;88.75
14253;BME280;7210;51.502;10.722;2022-09-12T09:16:59;99738.16;;;17.54;88.29
14253;BME280;7210;51.502;10.722;2022-09-12T09:19:33;99729.09;;;17.65;86.96
14253;BME280;7210;51.502;10.722;2022-09-12T09:22:11;99727.97;;;17.91;86.00
14253;BME280;7210;51.502;10.722;2022-09-12T09:24:46;99729.28;;;18.09;84.68
14253;BME280;7210;51.502;10.722;2022-09-12T09:27:26;99727.34;;;18.24;83.77
14253;BME280;7210;51.502;10.722;2022-09-12T09:29:55;99721.44;;;18.37;82.68
14253;BME280;7210;51.502;10.722;2022-09-12T09:32:29;99718.75;;;18.42;80.85
14253;BME280;7210;51.502;10.722;2022-09-12T09:34:59;99718.41;;;18.59;80.93
14253;BME280;7210;51.502;10.722;2022-09-12T09:37:38;99708.44;;;18.69;78.80
14253;BME280;7210;51.502;10.722;2022-09-12T09:40:19;99712.34;;;18.92;77.64
14253;BME280;7210;51.502;10.722;2022-09-12T09:42:59;99710.19;;;18.94;77.11
14253;BME280;7210;51.502;10.722;2022-09-12T09:45:29;99712.03;;;18.98;76.66
14253;BME280;7210;51.502;10.722;2022-09-12T09:48:09;99702.81;;;19.09;75.42
14253;BME280;7210;51.502;10.722;2022-09-12T09:50:47;99696.88;;;19.22;75.23
14253;BME280;7210;51.502;10.722;2022-09-12T09:53:35;99695.75;;;19.28;75.44
14253;BME280;7210;51.502;10.722;2022-09-12T09:56:10;99697.34;;;19.29;75.61
14253;BME280;7210;51.502;10.722;2022-09-12T09:58:39;99680.78;;;19.22;75.55
14253;BME280;7210;51.502;10.722;2022-09-12T10:01:14;99690.38;;;19.28;75.79
14253;BME280;7210;51.502;10.722;2022-09-12T10:03:49;99688.59;;;19.47;74.55
14253;BME280;7210;51.502;10.722;2022-09-12T10:06:30;99690.41;;;19.56;74.42
14253;BME280;7210;51.502;10.722;2022-09-12T10:09:19;99686.69;;;19.52;74.40
14253;BME280;7210;51.502;10.722;2022-09-12T10:11:47;99681.53;;;19.56;74.10
14253;BME280;7210;51.502;10.722;2022-09-12T10:14:32;99681.63;;;19.74;72.00
14253;BME280;7210;51.502;10.722;2022-09-12T10:17:19;99676.91;;;19.90;71.54
14253;BME280;7210;51.502;10.722;2022-09-12T10:19:49;99677.06;;;19.98;69.51
14253;BME280;7210;51.502;10.722;2022-09-12T10:22:21;99669.75;;;20.09;70.25
14253;BME280;7210;51.502;10.722;2022-09-12T10:24:52;99675.75;;;20.24;68.97
14253;BME280;7210;51.502;10.722;2022-09-12T10:27:24;99666.97;;;20.37;67.86
14253;BME280;7210;51.502;10.722;2022-09-12T10:29:58;99670.25;;;20.53;67.68
14253;BME280;7210;51.502;10.722;2022-09-12T10:32:29;99660.19;;;20.63;65.45
14253;BME280;7210;51.502;10.722;2022-09-12T10:35:03;99661.50;;;20.84;63.84
14253;BME280;7210;51.502;10.722;2022-09-12T10:37:36;99667.66;;;20.85;63.71
14253;BME280;7210;51.502;10.722;2022-09-12T10:40:19;99662.16;;;20.95;65.27
14253;BME280;7210;51.502;10.722;2022-09-12T10:42:51;99658.78;;;21.03;63.50
14253;BME280;7210;51.502;10.722;2022-09-12T10:45:26;99645.09;;;21.18;62.94
14253;BME280;7210;51.502;10.722;2022-09-12T10:47:56;99644.28;;;21.36;63.24
14253;BME280;7210;51.502;10.722;2022-09-12T10:50:30;99637.41;;;21.57;60.60
14253;BME280;7210;51.502;10.722;2022-09-12T10:53:20;99644.25;;;21.68;62.67
14253;BME280;7210;51.502;10.722;2022-09-12T10:56:10;99638.88;;;21.95;61.62
14253;BME280;7210;51.502;10.722;2022-09-12T10:59:01;99629.72;;;22.09;61.16
14253;BME280;7210;51.502;10.722;2022-09-12T11:01:39;99619.78;;;22.32;58.49
14253;BME280;7210;51.502;10.722;2022-09-12T11:04:49;99625.78;;;22.29;58.65
14253;BME280;7210;51.502;10.722;2022-09-12T11:07:36;99623.78;;;22.34;59.12
14253;BME280;7210;51.502;10.722;2022-09-12T11:10:22;99619.06;;;22.40;58.59
14253;BME280;7210;51.502;10.722;2022-09-12T11:13:05;99619.00;;;22.45;57.22
14253;BME280;7210;51.502;10.722;2022-09-12T11:15:58;99610.06;;;22.58;56.90
14253;BME280;7210;51.502;10.722;2022-09-12T11:18:50;99612.41;;;22.73;57.54
14253;BME280;7210;51.502;10.722;2022-09-12T11:21:42;99611.31;;;22.74;55.82
14253;BME280;7210;51.502;10.722;2022-09-12T11:24:57;99607.28;;;22.85;55.71
14253;BME280;7210;51.502;10.722;2022-09-12T11:27:51;99604.16;;;22.91;49.07
14253;BME280;7210;51.502;10.722;2022-09-12T11:30:20;99605.31;;;22.99;53.70
14253;BME280;7210;51.502;10.722;2022-09-12T11:33:06;99597.91;;;23.04;53.80
14253;BME280;7210;51.502;10.722;2022-09-12T11:35:46;99600.16;;;23.11;53.00
14253;BME280;7210;51.502;10.722;2022-09-12T11:38:48;99601.38;;;23.27;53.88
14253;BME280;7210;51.502;10.722;2022-09-12T11:41:24;99596.34;;;23.34;55.35
14253;BME280;7210;51.502;10.722;2022-09-12T11:44:01;99597.41;;;23.55;57.11
14253;BME280;7210;51.502;10.722;2022-09-12T11:46:35;99598.06;;;23.60;53.80
14253;BME280;7210;51.502;10.722;2022-09-12T11:49:16;99588.22;;;23.94;53.63
14253;BME280;7210;51.502;10.722;2022-09-12T11:51:51;99592.19;;;23.97;54.05
14253;BME280;7210;51.502;10.722;2022-09-12T11:54:28;99594.59;;;24.07;53.04
14253;BME280;7210;51.502;10.722;2022-09-12T11:57:10;99588.53;;;23.93;52.92
14253;BME280;7210;51.502;10.722;2022-09-12T11:59:46;99594.44;;;24.03;52.80
14253;BME280;7210;51.502;10.722;2022-09-12T12:02:24;99596.53;;;24.15;53.74
14253;BME280;7210;51.502;10.722;2022-09-12T12:05:08;99590.19;;;24.11;52.24
14253;BME280;7210;51.502;10.722;2022-09-12T12:07:51;99588.41;;;24.06;51.75
14253;BME280;7210;51.502;10.722;2022-09-12T12:10:28;99587.13;;;24.12;54.02
14253;BME280;7210;51.502;10.722;2022-09-12T12:13:02;99582.22;;;24.23;53.79
14253;BME280;7210;51.502;10.722;2022-09-12T12:15:35;99579.53;;;24.14;53.30
14253;BME280;7210;51.502;10.722;2022-09-12T12:18:07;99577.59;;;24.06;53.95
14253;BME280;7210;51.502;10.722;2022-09-12T12:20:41;99579.19;;;24.07;54.72
14253;BME280;7210;51.502;10.722;2022-09-12T12:23:24;99566.16;;;24.09;54.12
14253;BME280;7210;51.502;10.722;2022-09-12T12:25:54;99573.47;;;24.17;53.83
14253;BME280;7210;51.502;10.722;2022-09-12T12:28:58;99564.59;;;24.25;53.53
14253;BME280;7210;51.502;10.722;2022-09-12T12:31:25;99571.91;;;24.33;53.75
14253;BME280;7210;51.502;10.722;2022-09-12T12:34:21;99568.44;;;24.58;53.55
14253;BME280;7210;51.502;10.722;2022-09-12T12:36:52;99572.25;;;24.57;52.67
14253;BME280;7210;51.502;10.722;2022-09-12T12:39:58;99564.13;;;24.40;53.10
14253;BME280;7210;51.502;10.722;2022-09-12T12:43:14;99569.06;;;24.38;53.79
14253;BME280;7210;51.502;10.722;2022-09-12T12:46:05;99555.50;;;24.13;52.33
14253;BME280;7210;51.502;10.722;2022-09-12T12:48:59;99563.31;;;24.14;53.86
14253;BME280;7210;51.502;10.722;2022-09-12T12:51:58;99556.63;;;24.12;53.64
14253;BME280;7210;51.502;10.722;2022-09-12T12:54:55;99545.19;;;24.23;53.38
14253;BME280;7210;51.502;10.722;2022-09-12T12:57:48;99539.78;;;24.15;52.04
14253;BME280;7210;51.502;10.722;2022-09-12T13:00:29;99536.28;;;24.31;52.15
14253;BME280;7210;51.502;10.722;2022-09-12T13:03:09;99529.94;;;24.19;50.98
14253;BME280;7210;51.502;10.722;2022-09-12T13:05:44;99532.63;;;24.02;51.30
14253;BME280;7210;51.502;10.722;2022-09-12T13:08:28;99524.34;;;23.98;52.57
14253;BME280;7210;51.502;10.722;2022-09-12T13:11:00;99524.19;;;24.20;53.08
14253;BME280;7210;51.502;10.722;2022-09-12T13:13:35;99534.84;;;24.25;53.23
14253;BME280;7210;51.502;10.722;2022-09-12T13:16:04;99531.81;;;24.18;54.16
14253;BME280;7210;51.502;10.722;2022-09-12T13:18:42;99520.69;;;24.28;53.17
14253;BME280;7210;51.502;10.722;2022-09-12T13:21:14;99522.44;;;24.16;53.69
14253;BME280;7210;51.502;10.722;2022-09-12T13:23:44;99522.44;;;24.16;53.76
14253;BME280;7210;51.502;10.722;2022-09-12T13:26:21;99521.81;;;24.10;54.46
14253;BME280;7210;51.502;10.722;2022-09-12T13:29:07;99517.22;;;24.11;54.75
14253;BME280;7210;51.502;10.722;2022-09-12T13:31:36;99519.56;;;24.12;54.73
14253;BME280;7210;51.502;10.722;2022-09-12T13:34:06;99508.13;;;24.24;54.62
14253;BME280;7210;51.502;10.722;2022-09-12T13:36:49;99511.78;;;24.19;53.58
14253;BME280;7210;51.502;10.722;2022-09-12T13:39:24;99515.00;;;24.21;53.92
14253;BME280;7210;51.502;10.722;2022-09-12T13:42:31;99504.19;;;24.21;53.44
14253;BME280;7210;51.502;10.722;2022-09-12T13:45:10;99507.34;;;24.23;53.50
14253;BME280;7210;51.502;10.722;2022-09-12T13:47:42;99508.63;;;24.34;54.48